sensor_id;sensor_type;location;lat;lon;timestamp;temperature;humidity
22635;DHT22;11484;50.858;4.384;2022-09-27T00:01:14;12.00;99.90
22635;DHT22;11484;50.858;4.384;2022-09-27T00:03:40;12.00;99.90
22635;DHT22;11484;50.858;4.384;2022-09-27T00:06:19;12.00;99.90
22635;DHT22;11484;50.858;4.384;2022-09-27T00:08:45;12.00;99.90
22635;DHT22;11484;50.858;4.384;2022-09-27T00:11:19;11.90;99.90
22635;DHT22;11484;50.858;4.384;2022-09-27T00:13:47;12.00;99.90
22635;DHT22;11484;50.858;4.384;2022-09-27T00:16:13;12.00;99.90
22635;DHT22;11484;50.858;4.384;2022-09-27T00:18:39;11.90;99.90
22635;DHT22;11484;50.858;4.384;2022-09-27T00:21:08;11.90;99.90
22635;DHT22;11484;50.858;4.384;2022-09-27T00:23:35;12.00;99.90
22635;DHT22;11484;50.858;4.384;2022-09-27T00:26:01;11.90;99.90
22635;DHT22;11484;50.858;4.384;2022-09-27T00:28:27;11.90;99.90
22635;DHT22;11484;50.858;4.384;2022-09-27T00:30:53;11.90;99.90
22635;DHT22;11484;50.858;4.384;2022-09-27T00:33:19;11.80;99.90
22635;DHT22;11484;50.858;4.384;2022-09-27T00:35:45;11.80;99.90
22635;DHT22;11484;50.858;4.384;2022-09-27T00:38:11;11.80;99.90
22635;DHT22;11484;50.858;4.384;2022-09-27T00:40:37;11.70;99.90
22635;DHT22;11484;50.858;4.384;2022-09-27T00:45:41;11.80;99.90
22635;DHT22;11484;50.858;4.384;2022-09-27T00:48:12;11.70;99.90
22635;DHT22;11484;50.858;4.384;2022-09-27T00:50:43;11.80;99.90
22635;DHT22;11484;50.858;4.384;2022-09-27T00:53:22;11.80;99.90
22635;DHT22;11484;50.858;4.384;2022-09-27T00:55:54;11.70;99.90
22635;DHT22;11484;50.858;4.384;2022-09-27T00:58:51;11.80;99.90
22635;DHT22;11484;50.858;4.384;2022-09-27T01:01:14;11.70;99.90
22635;DHT22;11484;50.858;4.384;2022-09-27T01:04:04;11.80;99.90
22635;DHT22;11484;50.858;4.384;2022-09-27T01:06:32;11.80;99.90
22635;DHT22;11484;50.858;4.384;2022-09-27T01:08:59;11.80;99.90
22635;DHT22;11484;50.858;4.384;2022-09-27T01:11:30;11.90;99.90
22635;DHT22;11484;50.858;4.384;2022-09-27T01:14:47;12.00;99.90
22635;DHT22;11484;50.858;4.384;2022-09-27T01:16:52;11.90;99.90
22635;DHT22;11484;50.858;4.384;2022-09-27T01:25:13;11.80;99.90
22635;DHT22;11484;50.858;4.384;2022-09-27T01:27:54;11.90;99.90
22635;DHT22;11484;50.858;4.384;2022-09-27T01:30:27;11.90;99.90
22635;DHT22;11484;50.858;4.384;2022-09-27T01:33:11;12.00;99.90
22635;DHT22;11484;50.858;4.384;2022-09-27T01:38:46;12.00;99.90
22635;DHT22;11484;50.858;4.384;2022-09-27T01:46:30;11.90;99.90
22635;DHT22;11484;50.858;4.384;2022-09-27T01:49:03;11.90;99.90
22635;DHT22;11484;50.858;4.384;2022-09-27T01:51:37;11.80;99.90
22635;DHT22;11484;50.858;4.384;2022-09-27T01:54:05;11.90;99.90
22635;DHT22;11484;50.858;4.384;2022-09-27T01:56:36;11.90;99.90
22635;DHT22;11484;50.858;4.384;2022-09-27T01:59:49;11.90;99.90
22635;DHT22;11484;50.858;4.384;2022-09-27T02:02:08;11.90;99.90
22635;DHT22;11484;50.858;4.384;2022-09-27T02:04:39;11.90;99.90
22635;DHT22;11484;50.858;4.384;2022-09-27T02:07:12;11.90;99.90
22635;DHT22;11484;50.858;4.384;2022-09-27T02:09:45;11.90;99.90
22635;DHT22;11484;50.858;4.384;2022-09-27T02:12:15;11.90;99.90
22635;DHT22;11484;50.858;4.384;2022-09-27T02:14:50;11.90;99.90
22635;DHT22;11484;50.858;4.384;2022-09-27T02:20:13;11.80;99.90
22635;DHT22;11484;50.858;4.384;2022-09-27T02:28:46;11.80;99.90
22635;DHT22;11484;50.858;4.384;2022-09-27T02:31:14;11.70;99.90
22635;DHT22;11484;50.858;4.384;2022-09-27T02:33:51;11.70;99.90
22635;DHT22;11484;50.858;4.384;2022-09-27T02:36:19;11.80;99.90
22635;DHT22;11484;50.858;4.384;2022-09-27T02:38:46;11.80;99.90
22635;DHT22;11484;50.858;4.384;2022-09-27T02:41:15;11.70;99.90
22635;DHT22;11484;50.858;4.384;2022-09-27T02:43:42;11.80;99.90
22635;DHT22;11484;50.858;4.384;2022-09-27T02:57:02;11.70;99.90
22635;DHT22;11484;50.858;4.384;2022-09-27T03:05:04;11.80;99.90
22635;DHT22;11484;50.858;4.384;2022-09-27T03:07:32;11.80;99.90
22635;DHT22;11484;50.858;4.384;2022-09-27T03:09:59;11.80;99.90
22635;DHT22;11484;50.858;4.384;2022-09-27T03:12:25;11.80;99.90
22635;DHT22;11484;50.858;4.384;2022-09-27T03:14:58;11.80;99.90
22635;DHT22;11484;50.858;4.384;2022-09-27T03:17:24;11.70;99.90
22635;DHT22;11484;50.858;4.384;2022-09-27T03:19:51;11.80;99.90
22635;DHT22;11484;50.858;4.384;2022-09-27T03:22:23;11.80;99.90
22635;DHT22;11484;50.858;4.384;2022-09-27T03:24:49;11.80;99.90
22635;DHT22;11484;50.858;4.384;2022-09-27T03:27:14;11.80;99.90
22635;DHT22;11484;50.858;4.384;2022-09-27T03:29:40;11.80;99.90
22635;DHT22;11484;50.858;4.384;2022-09-27T03:32:06;11.80;99.90
22635;DHT22;11484;50.858;4.384;2022-09-27T03:34:32;11.80;99.90
22635;DHT22;11484;50.858;4.384;2022-09-27T03:36:57;11.90;99.90
22635;DHT22;11484;50.858;4.384;2022-09-27T03:39:23;11.90;99.90
22635;DHT22;11484;50.858;4.384;2022-09-27T03:41:49;11.90;99.90
22635;DHT22;11484;50.858;4.384;2022-09-27T03:44:15;11.90;99.90
22635;DHT22;11484;50.858;4.384;2022-09-27T03:46:41;12.00;99.90
22635;DHT22;11484;50.858;4.384;2022-09-27T03:49:07;12.00;99.90
22635;DHT22;11484;50.858;4.384;2022-09-27T03:51:32;11.90;99.90
22635;DHT22;11484;50.858;4.384;2022-09-27T03:53:59;11.90;99.90
22635;DHT22;11484;50.858;4.384;2022-09-27T03:56:24;11.90;99.90
22635;DHT22;11484;50.858;4.384;2022-09-27T03:58:50;11.90;99.90
22635;DHT22;11484;50.858;4.384;2022-09-27T04:01:16;11.90;99.90
22635;DHT22;11484;50.858;4.384;2022-09-27T04:03:41;11.90;99.90
22635;DHT22;11484;50.858;4.384;2022-09-27T04:06:07;11.90;99.90
22635;DHT22;11484;50.858;4.384;2022-09-27T04:08:33;12.00;99.90
22635;DHT22;11484;50.858;4.384;2022-09-27T04:10:59;11.90;99.90
22635;DHT22;11484;50.858;4.384;2022-09-27T04:13:25;12.00;99.90
22635;DHT22;11484;50.858;4.384;2022-09-27T04:15:51;12.00;99.90
22635;DHT22;11484;50.858;4.384;2022-09-27T04:18:17;11.90;99.90
22635;DHT22;11484;50.858;4.384;2022-09-27T04:20:42;11.90;99.90
22635;DHT22;11484;50.858;4.384;2022-09-27T04:23:09;11.90;99.90
22635;DHT22;11484;50.858;4.384;2022-09-27T04:25:35;11.90;99.90
22635;DHT22;11484;50.858;4.384;2022-09-27T04:28:01;11.80;99.90
22635;DHT22;11484;50.858;4.384;2022-09-27T04:30:27;12.00;99.90
22635;DHT22;11484;50.858;4.384;2022-09-27T04:32:54;11.90;99.90
22635;DHT22;11484;50.858;4.384;2022-09-27T04:35:19;11.90;99.90
22635;DHT22;11484;50.858;4.384;2022-09-27T04:38:04;11.80;99.90
22635;DHT22;11484;50.858;4.384;2022-09-27T04:40:33;11.80;99.90
22635;DHT22;11484;50.858;4.384;2022-09-27T04:42:59;11.70;99.90
22635;DHT22;11484;50.858;4.384;2022-09-27T04:45:25;11.80;99.90
22635;DHT22;11484;50.858;4.384;2022-09-27T04:47:50;11.80;99.90
22635;DHT22;11484;50.858;4.384;2022-09-27T04:50:17;11.70;99.90
22635;DHT22;11484;50.858;4.384;2022-09-27T04:52:49;11.70;99.90
22635;DHT22;11484;50.858;4.384;2022-09-27T04:55:17;11.60;99.90
22635;DHT22;11484;50.858;4.384;2022-09-27T04:57:43;11.60;99.90
22635;DHT22;11484;50.858;4.384;2022-09-27T05:00:09;11.60;99.90
22635;DHT22;11484;50.858;4.384;2022-09-27T05:02:35;11.50;99.90
22635;DHT22;11484;50.858;4.384;2022-09-27T05:05:01;11.50;99.90
22635;DHT22;11484;50.858;4.384;2022-09-27T05:07:28;11.60;99.90
22635;DHT22;11484;50.858;4.384;2022-09-27T05:09:54;11.60;99.90
22635;DHT22;11484;50.858;4.384;2022-09-27T05:12:20;11.60;99.90
22635;DHT22;11484;50.858;4.384;2022-09-27T05:14:46;11.70;99.90
22635;DHT22;11484;50.858;4.384;2022-09-27T05:17:12;11.70;99.90
22635;DHT22;11484;50.858;4.384;2022-09-27T05:19:38;11.70;99.90
22635;DHT22;11484;50.858;4.384;2022-09-27T05:22:07;11.60;99.90
22635;DHT22;11484;50.858;4.384;2022-09-27T05:24:33;11.60;99.90
22635;DHT22;11484;50.858;4.384;2022-09-27T05:27:00;11.60;99.90
22635;DHT22;11484;50.858;4.384;2022-09-27T05:29:26;11.70;99.90
22635;DHT22;11484;50.858;4.384;2022-09-27T05:31:52;11.70;99.90
22635;DHT22;11484;50.858;4.384;2022-09-27T05:34:18;11.70;99.90
22635;DHT22;11484;50.858;4.384;2022-09-27T05:36:49;11.70;99.90
22635;DHT22;11484;50.858;4.384;2022-09-27T05:39:15;11.60;99.90
22635;DHT22;11484;50.858;4.384;2022-09-27T05:41:45;11.70;99.90
22635;DHT22;11484;50.858;4.384;2022-09-27T05:44:13;11.60;99.90
22635;DHT22;11484;50.858;4.384;2022-09-27T05:46:39;11.60;99.90
22635;DHT22;11484;50.858;4.384;2022-09-27T05:49:05;11.70;99.90
22635;DHT22;11484;50.858;4.384;2022-09-27T05:51:31;11.60;99.90
22635;DHT22;11484;50.858;4.384;2022-09-27T05:53:57;11.50;99.90
22635;DHT22;11484;50.858;4.384;2022-09-27T05:56:24;11.50;99.90
22635;DHT22;11484;50.858;4.384;2022-09-27T05:58:50;11.50;99.90
22635;DHT22;11484;50.858;4.384;2022-09-27T06:01:17;11.50;99.90
22635;DHT22;11484;50.858;4.384;2022-09-27T06:03:45;11.50;99.90
22635;DHT22;11484;50.858;4.384;2022-09-27T06:06:13;11.60;99.90
22635;DHT22;11484;50.858;4.384;2022-09-27T06:08:40;11.60;99.90
22635;DHT22;11484;50.858;4.384;2022-09-27T06:11:10;11.70;99.90
22635;DHT22;11484;50.858;4.384;2022-09-27T06:13:37;11.80;99.90
22635;DHT22;11484;50.858;4.384;2022-09-27T06:16:07;11.70;99.90
22635;DHT22;11484;50.858;4.384;2022-09-27T06:18:34;11.70;99.90
22635;DHT22;11484;50.858;4.384;2022-09-27T06:21:02;11.70;99.90
22635;DHT22;11484;50.858;4.384;2022-09-27T06:23:29;11.70;99.90
22635;DHT22;11484;50.858;4.384;2022-09-27T06:26:03;11.70;99.90
22635;DHT22;11484;50.858;4.384;2022-09-27T06:28:30;11.70;99.90
22635;DHT22;11484;50.858;4.384;2022-09-27T06:30:56;11.70;99.90
22635;DHT22;11484;50.858;4.384;2022-09-27T06:33:25;11.70;99.90
22635;DHT22;11484;50.858;4.384;2022-09-27T06:35:52;11.70;99.90
22635;DHT22;11484;50.858;4.384;2022-09-27T06:38:18;11.80;99.90
22635;DHT22;11484;50.858;4.384;2022-09-27T06:40:46;11.70;99.90
22635;DHT22;11484;50.858;4.384;2022-09-27T06:43:19;11.70;99.90
22635;DHT22;11484;50.858;4.384;2022-09-27T06:45:46;11.80;99.90
22635;DHT22;11484;50.858;4.384;2022-09-27T06:48:13;11.80;99.90
22635;DHT22;11484;50.858;4.384;2022-09-27T06:50:40;11.70;99.90
22635;DHT22;11484;50.858;4.384;2022-09-27T06:53:10;11.60;99.90
22635;DHT22;11484;50.858;4.384;2022-09-27T06:55:36;11.70;99.90
22635;DHT22;11484;50.858;4.384;2022-09-27T06:58:03;11.90;99.90
22635;DHT22;11484;50.858;4.384;2022-09-27T07:00:50;12.00;99.90
22635;DHT22;11484;50.858;4.384;2022-09-27T07:03:19;12.10;99.90
22635;DHT22;11484;50.858;4.384;2022-09-27T07:05:55;12.10;99.90
22635;DHT22;11484;50.858;4.384;2022-09-27T07:08:24;12.10;99.90
22635;DHT22;11484;50.858;4.384;2022-09-27T07:10:51;12.20;99.90
22635;DHT22;11484;50.858;4.384;2022-09-27T07:13:18;12.10;99.90
22635;DHT22;11484;50.858;4.384;2022-09-27T07:15:44;12.10;99.90
22635;DHT22;11484;50.858;4.384;2022-09-27T07:18:09;12.10;99.90
22635;DHT22;11484;50.858;4.384;2022-09-27T07:20:35;12.10;99.90
22635;DHT22;11484;50.858;4.384;2022-09-27T07:23:04;12.10;99.90
22635;DHT22;11484;50.858;4.384;2022-09-27T07:25:31;12.20;99.90
22635;DHT22;11484;50.858;4.384;2022-09-27T07:28:05;12.20;99.90
22635;DHT22;11484;50.858;4.384;2022-09-27T07:30:33;12.40;99.90
22635;DHT22;11484;50.858;4.384;2022-09-27T07:33:01;12.40;99.90
22635;DHT22;11484;50.858;4.384;2022-09-27T07:35:28;12.60;99.90
22635;DHT22;11484;50.858;4.384;2022-09-27T07:37:56;12.60;99.90
22635;DHT22;11484;50.858;4.384;2022-09-27T07:40:23;12.60;99.90
22635;DHT22;11484;50.858;4.384;2022-09-27T07:42:56;12.50;99.90
22635;DHT22;11484;50.858;4.384;2022-09-27T07:45:23;12.50;99.90
22635;DHT22;11484;50.858;4.384;2022-09-27T07:47:49;12.40;99.90
22635;DHT22;11484;50.858;4.384;2022-09-27T07:50:15;12.60;99.90
22635;DHT22;11484;50.858;4.384;2022-09-27T07:52:43;12.60;99.90
22635;DHT22;11484;50.858;4.384;2022-09-27T07:55:11;12.50;99.90
22635;DHT22;11484;50.858;4.384;2022-09-27T07:57:38;12.60;99.90
22635;DHT22;11484;50.858;4.384;2022-09-27T08:00:06;12.50;99.90
22635;DHT22;11484;50.858;4.384;2022-09-27T08:02:33;12.50;99.90
22635;DHT22;11484;50.858;4.384;2022-09-27T08:04:59;12.50;99.90
22635;DHT22;11484;50.858;4.384;2022-09-27T08:07:25;12.40;99.90
22635;DHT22;11484;50.858;4.384;2022-09-27T08:09:51;12.40;99.90
22635;DHT22;11484;50.858;4.384;2022-09-27T08:12:18;12.30;99.90
22635;DHT22;11484;50.858;4.384;2022-09-27T08:14:49;12.30;99.90
22635;DHT22;11484;50.858;4.384;2022-09-27T08:17:16;12.20;99.90
22635;DHT22;11484;50.858;4.384;2022-09-27T08:19:42;12.20;99.90
22635;DHT22;11484;50.858;4.384;2022-09-27T08:22:10;12.20;99.90
22635;DHT22;11484;50.858;4.384;2022-09-27T08:24:41;12.20;99.90
22635;DHT22;11484;50.858;4.384;2022-09-27T08:27:07;12.30;99.90
22635;DHT22;11484;50.858;4.384;2022-09-27T08:29:36;12.40;99.90
22635;DHT22;11484;50.858;4.384;2022-09-27T08:32:02;12.50;99.90
22635;DHT22;11484;50.858;4.384;2022-09-27T08:34:28;12.50;99.90
22635;DHT22;11484;50.858;4.384;2022-09-27T08:36:54;12.60;99.90
22635;DHT22;11484;50.858;4.384;2022-09-27T08:39:23;12.60;99.90
22635;DHT22;11484;50.858;4.384;2022-09-27T08:45:06;12.60;99.90
22635;DHT22;11484;50.858;4.384;2022-09-27T08:47:54;12.60;99.90
22635;DHT22;11484;50.858;4.384;2022-09-27T08:50:35;12.60;99.90
22635;DHT22;11484;50.858;4.384;2022-09-27T08:53:03;12.70;99.90
22635;DHT22;11484;50.858;4.384;2022-09-27T08:55:34;12.70;99.90
22635;DHT22;11484;50.858;4.384;2022-09-27T08:58:04;12.60;99.90
22635;DHT22;11484;50.858;4.384;2022-09-27T09:00:35;12.40;99.90
22635;DHT22;11484;50.858;4.384;2022-09-27T09:03:02;12.50;99.90
22635;DHT22;11484;50.858;4.384;2022-09-27T09:05:33;12.40;99.90
22635;DHT22;11484;50.858;4.384;2022-09-27T09:08:22;12.40;99.90
22635;DHT22;11484;50.858;4.384;2022-09-27T09:14:25;12.50;99.90
22635;DHT22;11484;50.858;4.384;2022-09-27T09:19:46;12.30;99.90
22635;DHT22;11484;50.858;4.384;2022-09-27T09:33:27;12.20;99.90
22635;DHT22;11484;50.858;4.384;2022-09-27T09:36:01;12.20;99.90
22635;DHT22;11484;50.858;4.384;2022-09-27T09:38:37;12.20;99.90
22635;DHT22;11484;50.858;4.384;2022-09-27T09:43:39;12.70;99.90
22635;DHT22;11484;50.858;4.384;2022-09-27T09:49:50;13.40;99.90
22635;DHT22;11484;50.858;4.384;2022-09-27T09:52:14;13.70;99.90
22635;DHT22;11484;50.858;4.384;2022-09-27T09:54:45;13.80;99.90
22635;DHT22;11484;50.858;4.384;2022-09-27T09:57:13;13.90;99.90
22635;DHT22;11484;50.858;4.384;2022-09-27T09:59:50;13.90;99.90
22635;DHT22;11484;50.858;4.384;2022-09-27T10:02:22;13.90;99.90
22635;DHT22;11484;50.858;4.384;2022-09-27T10:04:51;14.10;99.90
22635;DHT22;11484;50.858;4.384;2022-09-27T10:07:22;14.10;99.90
22635;DHT22;11484;50.858;4.384;2022-09-27T10:09:50;14.20;99.90
22635;DHT22;11484;50.858;4.384;2022-09-27T10:12:19;14.40;99.90
22635;DHT22;11484;50.858;4.384;2022-09-27T10:14:46;14.70;99.90
22635;DHT22;11484;50.858;4.384;2022-09-27T10:17:17;14.80;99.90
22635;DHT22;11484;50.858;4.384;2022-09-27T10:19:44;14.90;99.90
22635;DHT22;11484;50.858;4.384;2022-09-27T10:22:17;15.00;99.90
22635;DHT22;11484;50.858;4.384;2022-09-27T10:25:00;15.10;99.90
22635;DHT22;11484;50.858;4.384;2022-09-27T10:27:27;15.20;99.90
22635;DHT22;11484;50.858;4.384;2022-09-27T10:29:57;15.20;99.90
22635;DHT22;11484;50.858;4.384;2022-09-27T10:32:30;15.30;99.90
22635;DHT22;11484;50.858;4.384;2022-09-27T10:35:17;15.30;99.90
22635;DHT22;11484;50.858;4.384;2022-09-27T10:37:43;15.30;99.90
22635;DHT22;11484;50.858;4.384;2022-09-27T10:40:31;15.00;99.90
22635;DHT22;11484;50.858;4.384;2022-09-27T10:42:58;14.90;99.90
22635;DHT22;11484;50.858;4.384;2022-09-27T10:45:29;15.00;99.90
22635;DHT22;11484;50.858;4.384;2022-09-27T10:47:58;15.10;99.90
22635;DHT22;11484;50.858;4.384;2022-09-27T10:50:27;15.20;99.90
22635;DHT22;11484;50.858;4.384;2022-09-27T10:53:14;15.20;99.90
22635;DHT22;11484;50.858;4.384;2022-09-27T10:55:41;15.20;99.90
22635;DHT22;11484;50.858;4.384;2022-09-27T11:00:59;15.20;99.90
22635;DHT22;11484;50.858;4.384;2022-09-27T11:03:29;15.10;99.90
22635;DHT22;11484;50.858;4.384;2022-09-27T11:05:56;15.10;99.90
22635;DHT22;11484;50.858;4.384;2022-09-27T11:08:31;15.10;99.90
22635;DHT22;11484;50.858;4.384;2022-09-27T11:13:39;15.10;99.90
22635;DHT22;11484;50.858;4.384;2022-09-27T11:37:32;14.20;99.90
22635;DHT22;11484;50.858;4.384;2022-09-27T11:42:46;14.40;99.90
22635;DHT22;11484;50.858;4.384;2022-09-27T11:56:57;14.70;99.90
22635;DHT22;11484;50.858;4.384;2022-09-27T12:05:45;14.90;99.90
22635;DHT22;11484;50.858;4.384;2022-09-27T12:13:52;15.10;99.90
22635;DHT22;11484;50.858;4.384;2022-09-27T12:16:20;15.20;99.90
22635;DHT22;11484;50.858;4.384;2022-09-27T12:18:49;15.20;99.90
22635;DHT22;11484;50.858;4.384;2022-09-27T12:21:17;15.30;99.90
22635;DHT22;11484;50.858;4.384;2022-09-27T12:23:49;15.30;99.90
22635;DHT22;11484;50.858;4.384;2022-09-27T12:26:38;15.40;99.90
22635;DHT22;11484;50.858;4.384;2022-09-27T12:29:20;15.20;99.90
22635;DHT22;11484;50.858;4.384;2022-09-27T12:34:53;15.10;99.90
22635;DHT22;11484;50.858;4.384;2022-09-27T12:37:27;15.00;99.90
22635;DHT22;11484;50.858;4.384;2022-09-27T12:40:01;15.00;99.90
22635;DHT22;11484;50.858;4.384;2022-09-27T12:42:49;14.80;99.90
22635;DHT22;11484;50.858;4.384;2022-09-27T12:48:04;14.70;99.90
22635;DHT22;11484;50.858;4.384;2022-09-27T12:50:39;14.80;99.90
22635;DHT22;11484;50.858;4.384;2022-09-27T12:55:46;15.00;99.90
22635;DHT22;11484;50.858;4.384;2022-09-27T13:06:29;14.70;99.90
22635;DHT22;11484;50.858;4.384;2022-09-27T13:14:29;14.70;99.90
22635;DHT22;11484;50.858;4.384;2022-09-27T13:16:56;14.90;99.90
22635;DHT22;11484;50.858;4.384;2022-09-27T13:22:03;14.90;99.90
22635;DHT22;11484;50.858;4.384;2022-09-27T13:29:50;15.20;99.90
22635;DHT22;11484;50.858;4.384;2022-09-27T13:32:19;15.40;99.90
22635;DHT22;11484;50.858;4.384;2022-09-27T13:34:46;15.50;99.90
22635;DHT22;11484;50.858;4.384;2022-09-27T13:40:30;15.60;99.90
22635;DHT22;11484;50.858;4.384;2022-09-27T13:46:18;15.50;99.90
22635;DHT22;11484;50.858;4.384;2022-09-27T13:48:54;15.50;99.90
22635;DHT22;11484;50.858;4.384;2022-09-27T13:53:59;15.60;99.90
22635;DHT22;11484;50.858;4.384;2022-09-27T13:59:44;15.90;99.90
22635;DHT22;11484;50.858;4.384;2022-09-27T14:02:19;16.10;99.90
22635;DHT22;11484;50.858;4.384;2022-09-27T14:04:51;15.90;99.90
22635;DHT22;11484;50.858;4.384;2022-09-27T14:07:24;16.00;99.90
22635;DHT22;11484;50.858;4.384;2022-09-27T14:09:53;16.10;99.90
22635;DHT22;11484;50.858;4.384;2022-09-27T14:12:33;16.10;99.90
22635;DHT22;11484;50.858;4.384;2022-09-27T14:15:02;16.00;99.90
22635;DHT22;11484;50.858;4.384;2022-09-27T14:17:29;15.80;99.90
22635;DHT22;11484;50.858;4.384;2022-09-27T14:19:56;15.60;99.90
22635;DHT22;11484;50.858;4.384;2022-09-27T14:22:23;15.60;99.90
22635;DHT22;11484;50.858;4.384;2022-09-27T14:24:53;15.60;99.90
22635;DHT22;11484;50.858;4.384;2022-09-27T14:27:28;15.60;99.90
22635;DHT22;11484;50.858;4.384;2022-09-27T14:32:29;15.60;99.90
22635;DHT22;11484;50.858;4.384;2022-09-27T14:37:28;15.50;99.90
22635;DHT22;11484;50.858;4.384;2022-09-27T14:40:05;15.60;99.90
22635;DHT22;11484;50.858;4.384;2022-09-27T14:42:36;15.60;99.90
22635;DHT22;11484;50.858;4.384;2022-09-27T14:47:57;15.70;99.90
22635;DHT22;11484;50.858;4.384;2022-09-27T14:50:29;15.70;99.90
22635;DHT22;11484;50.858;4.384;2022-09-27T14:52:56;15.80;99.90
22635;DHT22;11484;50.858;4.384;2022-09-27T14:55:26;15.70;99.90
22635;DHT22;11484;50.858;4.384;2022-09-27T14:57:55;15.40;99.90
22635;DHT22;11484;50.858;4.384;2022-09-27T15:00:22;15.10;99.90
22635;DHT22;11484;50.858;4.384;2022-09-27T15:02:52;14.90;99.90
22635;DHT22;11484;50.858;4.384;2022-09-27T15:05:22;14.70;99.90
22635;DHT22;11484;50.858;4.384;2022-09-27T15:07:48;14.60;99.90
22635;DHT22;11484;50.858;4.384;2022-09-27T15:10:17;14.70;99.90
22635;DHT22;11484;50.858;4.384;2022-09-27T15:12:49;14.60;99.90
22635;DHT22;11484;50.858;4.384;2022-09-27T15:15:18;14.60;99.90
22635;DHT22;11484;50.858;4.384;2022-09-27T15:17:45;14.60;99.90
22635;DHT22;11484;50.858;4.384;2022-09-27T15:20:34;14.60;99.90
22635;DHT22;11484;50.858;4.384;2022-09-27T15:23:02;14.50;99.90
22635;DHT22;11484;50.858;4.384;2022-09-27T15:25:40;14.40;99.90
22635;DHT22;11484;50.858;4.384;2022-09-27T15:30:39;14.40;99.90
22635;DHT22;11484;50.858;4.384;2022-09-27T15:33:15;14.50;99.90
22635;DHT22;11484;50.858;4.384;2022-09-27T15:35:51;14.60;99.90
22635;DHT22;11484;50.858;4.384;2022-09-27T15:43:28;14.80;99.90
22635;DHT22;11484;50.858;4.384;2022-09-27T15:45:56;15.00;99.90
22635;DHT22;11484;50.858;4.384;2022-09-27T15:48:22;14.90;99.90
22635;DHT22;11484;50.858;4.384;2022-09-27T15:50:49;14.90;99.90
22635;DHT22;11484;50.858;4.384;2022-09-27T15:56:03;14.80;99.90
22635;DHT22;11484;50.858;4.384;2022-09-27T15:58:30;14.80;99.90
22635;DHT22;11484;50.858;4.384;2022-09-27T16:01:02;14.90;99.90
22635;DHT22;11484;50.858;4.384;2022-09-27T16:03:28;15.00;99.90
22635;DHT22;11484;50.858;4.384;2022-09-27T16:05:59;14.90;99.90
22635;DHT22;11484;50.858;4.384;2022-09-27T16:08:26;14.80;99.90
22635;DHT22;11484;50.858;4.384;2022-09-27T16:10:54;14.70;99.90
22635;DHT22;11484;50.858;4.384;2022-09-27T16:13:21;14.70;99.90
22635;DHT22;11484;50.858;4.384;2022-09-27T16:15:47;14.70;99.90
22635;DHT22;11484;50.858;4.384;2022-09-27T16:18:13;14.80;99.90
22635;DHT22;11484;50.858;4.384;2022-09-27T16:20:39;14.70;99.90
22635;DHT22;11484;50.858;4.384;2022-09-27T16:23:05;14.80;99.90
22635;DHT22;11484;50.858;4.384;2022-09-27T16:25:31;14.80;99.90
22635;DHT22;11484;50.858;4.384;2022-09-27T16:27:58;14.80;99.90
22635;DHT22;11484;50.858;4.384;2022-09-27T16:30:25;14.80;99.90
22635;DHT22;11484;50.858;4.384;2022-09-27T16:32:51;14.80;99.90
22635;DHT22;11484;50.858;4.384;2022-09-27T16:35:18;14.80;99.90
22635;DHT22;11484;50.858;4.384;2022-09-27T16:37:45;14.80;99.90
22635;DHT22;11484;50.858;4.384;2022-09-27T16:40:11;14.80;99.90
22635;DHT22;11484;50.858;4.384;2022-09-27T16:42:43;14.70;99.90
22635;DHT22;11484;50.858;4.384;2022-09-27T16:45:09;14.70;99.90
22635;DHT22;11484;50.858;4.384;2022-09-27T16:48:00;14.70;99.90
22635;DHT22;11484;50.858;4.384;2022-09-27T16:50:38;14.70;99.90
22635;DHT22;11484;50.858;4.384;2022-09-27T16:53:25;14.70;99.90
22635;DHT22;11484;50.858;4.384;2022-09-27T16:55:58;14.60;99.90
22635;DHT22;11484;50.858;4.384;2022-09-27T16:58:24;14.60;99.90
22635;DHT22;11484;50.858;4.384;2022-09-27T17:00:56;14.60;99.90
22635;DHT22;11484;50.858;4.384;2022-09-27T17:03:29;14.70;99.90
22635;DHT22;11484;50.858;4.384;2022-09-27T17:06:01;14.70;99.90
22635;DHT22;11484;50.858;4.384;2022-09-27T17:08:30;14.70;99.90
22635;DHT22;11484;50.858;4.384;2022-09-27T17:11:00;14.80;99.90
22635;DHT22;11484;50.858;4.384;2022-09-27T17:13:30;14.70;99.90
22635;DHT22;11484;50.858;4.384;2022-09-27T17:15:55;14.80;99.90
22635;DHT22;11484;50.858;4.384;2022-09-27T17:18:22;14.80;99.90
22635;DHT22;11484;50.858;4.384;2022-09-27T17:20:50;14.80;99.90
22635;DHT22;11484;50.858;4.384;2022-09-27T17:23:26;14.80;99.90
22635;DHT22;11484;50.858;4.384;2022-09-27T17:25:52;14.70;99.90
22635;DHT22;11484;50.858;4.384;2022-09-27T17:28:22;14.70;99.90
22635;DHT22;11484;50.858;4.384;2022-09-27T17:30:48;14.60;99.90
22635;DHT22;11484;50.858;4.384;2022-09-27T17:33:16;14.60;99.90
22635;DHT22;11484;50.858;4.384;2022-09-27T17:35:45;14.60;99.90
22635;DHT22;11484;50.858;4.384;2022-09-27T17:38:12;14.60;99.90
22635;DHT22;11484;50.858;4.384;2022-09-27T17:40:38;14.70;99.90
22635;DHT22;11484;50.858;4.384;2022-09-27T17:43:04;14.70;99.90
22635;DHT22;11484;50.858;4.384;2022-09-27T17:45:36;14.70;99.90
22635;DHT22;11484;50.858;4.384;2022-09-27T17:48:09;14.70;99.90
22635;DHT22;11484;50.858;4.384;2022-09-27T17:50:54;14.70;99.90
22635;DHT22;11484;50.858;4.384;2022-09-27T17:53:23;14.70;99.90
22635;DHT22;11484;50.858;4.384;2022-09-27T17:55:48;14.50;99.90
22635;DHT22;11484;50.858;4.384;2022-09-27T17:58:15;14.40;99.90
22635;DHT22;11484;50.858;4.384;2022-09-27T18:00:42;14.30;99.90
22635;DHT22;11484;50.858;4.384;2022-09-27T18:03:15;14.10;99.90
22635;DHT22;11484;50.858;4.384;2022-09-27T18:05:45;14.10;99.90
22635;DHT22;11484;50.858;4.384;2022-09-27T18:08:19;13.80;99.90
22635;DHT22;11484;50.858;4.384;2022-09-27T18:10:46;13.70;99.90
22635;DHT22;11484;50.858;4.384;2022-09-27T18:13:13;13.50;99.90
22635;DHT22;11484;50.858;4.384;2022-09-27T18:15:38;13.40;99.90
22635;DHT22;11484;50.858;4.384;2022-09-27T18:18:05;13.20;99.90
22635;DHT22;11484;50.858;4.384;2022-09-27T18:20:34;13.00;99.90
22635;DHT22;11484;50.858;4.384;2022-09-27T18:23:00;12.80;99.90
22635;DHT22;11484;50.858;4.384;2022-09-27T18:25:25;12.70;99.90
22635;DHT22;11484;50.858;4.384;2022-09-27T18:27:51;12.60;99.90
22635;DHT22;11484;50.858;4.384;2022-09-27T18:30:20;12.50;99.90
22635;DHT22;11484;50.858;4.384;2022-09-27T18:32:45;12.50;99.90
22635;DHT22;11484;50.858;4.384;2022-09-27T18:35:11;12.50;99.90
22635;DHT22;11484;50.858;4.384;2022-09-27T18:37:37;12.50;99.90
22635;DHT22;11484;50.858;4.384;2022-09-27T18:40:03;12.50;99.90
22635;DHT22;11484;50.858;4.384;2022-09-27T18:42:29;12.60;99.90
22635;DHT22;11484;50.858;4.384;2022-09-27T18:44:55;12.60;99.90
22635;DHT22;11484;50.858;4.384;2022-09-27T18:47:21;12.60;99.90